sensor_id;sensor_type;location;lat;lon;timestamp;pressure;altitude;pressure_sealevel;temperature;humidity
74659;BME280;63186;51.204;6.536;2023-03-21T00:01:27;101294.34;;;9.03;82.55
74659;BME280;63186;51.204;6.536;2023-03-21T00:03:53;101299.00;;;9.02;82.63
74659;BME280;63186;51.204;6.536;2023-03-21T00:06:18;101292.69;;;9.02;82.73
74659;BME280;63186;51.204;6.536;2023-03-21T00:08:43;101296.56;;;9.01;82.99
74659;BME280;63186;51.204;6.536;2023-03-21T00:11:10;101289.94;;;9.02;82.95
74659;BME280;63186;51.204;6.536;2023-03-21T00:13:36;101286.66;;;9.00;83.02
74659;BME280;63186;51.204;6.536;2023-03-21T00:16:09;101284.19;;;8.98;83.00
74659;BME280;63186;51.204;6.536;2023-03-21T00:18:40;101285.03;;;8.98;83.18
74659;BME280;63186;51.204;6.536;2023-03-21T00:21:07;101284.75;;;9.00;83.32
74659;BME280;63186;51.204;6.536;2023-03-21T00:23:34;101284.75;;;9.00;83.25
74659;BME280;63186;51.204;6.536;2023-03-21T00:26:00;101281.75;;;8.96;83.37
74659;BME280;63186;51.204;6.536;2023-03-21T00:28:28;101282.56;;;8.97;83.34
74659;BME280;63186;51.204;6.536;2023-03-21T00:30:59;101283.91;;;9.00;83.29
74659;BME280;63186;51.204;6.536;2023-03-21T00:33:25;101280.63;;;8.97;83.36
74659;BME280;63186;51.204;6.536;2023-03-21T00:35:51;101276.84;;;8.93;83.49
74659;BME280;63186;51.204;6.536;2023-03-21T00:38:21;101274.38;;;8.92;83.70
74659;BME280;63186;51.204;6.536;2023-03-21T00:40:47;101272.72;;;8.91;83.57
74659;BME280;63186;51.204;6.536;2023-03-21T00:43:12;101273.53;;;8.91;83.79
74659;BME280;63186;51.204;6.536;2023-03-21T00:45:46;101274.66;;;8.90;83.76
74659;BME280;63186;51.204;6.536;2023-03-21T00:48:12;101263.16;;;8.88;83.73
74659;BME280;63186;51.204;6.536;2023-03-21T00:50:37;101261.44;;;8.92;83.90
74659;BME280;63186;51.204;6.536;2023-03-21T00:53:04;101255.97;;;8.92;83.78
74659;BME280;63186;51.204;6.536;2023-03-21T00:55:30;101258.72;;;8.92;83.85
74659;BME280;63186;51.204;6.536;2023-03-21T00:57:55;101246.63;;;8.93;83.68
74659;BME280;63186;51.204;6.536;2023-03-21T01:00:21;101257.56;;;8.98;83.64
74659;BME280;63186;51.204;6.536;2023-03-21T01:02:46;101256.75;;;8.98;83.84
74659;BME280;63186;51.204;6.536;2023-03-21T01:05:31;101254.81;;;8.98;83.58
74659;BME280;63186;51.204;6.536;2023-03-21T01:08:16;101247.38;;;8.99;83.36
74659;BME280;63186;51.204;6.536;2023-03-21T01:10:44;101245.19;;;9.01;83.40
74659;BME280;63186;51.204;6.536;2023-03-21T01:13:12;101248.22;;;9.00;83.32
74659;BME280;63186;51.204;6.536;2023-03-21T01:15:43;101247.94;;;9.01;83.65
74659;BME280;63186;51.204;6.536;2023-03-21T01:18:08;101241.91;;;8.99;83.53
74659;BME280;63186;51.204;6.536;2023-03-21T01:20:34;101234.78;;;8.98;83.73
74659;BME280;63186;51.204;6.536;2023-03-21T01:22:59;101233.72;;;8.94;83.52
74659;BME280;63186;51.204;6.536;2023-03-21T01:25:25;101235.41;;;8.90;83.81
74659;BME280;63186;51.204;6.536;2023-03-21T01:27:50;101231.06;;;8.84;84.41
74659;BME280;63186;51.204;6.536;2023-03-21T01:30:16;101234.91;;;8.83;85.27
74659;BME280;63186;51.204;6.536;2023-03-21T01:32:41;101226.09;;;8.86;84.72
74659;BME280;63186;51.204;6.536;2023-03-21T01:35:07;101229.38;;;8.88;84.64
74659;BME280;63186;51.204;6.536;2023-03-21T01:37:32;101221.41;;;8.86;84.47
74659;BME280;63186;51.204;6.536;2023-03-21T01:39:57;101218.19;;;8.79;84.73
74659;BME280;63186;51.204;6.536;2023-03-21T01:42:23;101220.91;;;8.84;84.99
74659;BME280;63186;51.204;6.536;2023-03-21T01:44:55;101219.22;;;8.88;84.88
74659;BME280;63186;51.204;6.536;2023-03-21T01:47:21;101207.97;;;8.85;85.10
74659;BME280;63186;51.204;6.536;2023-03-21T01:49:50;101214.06;;;8.82;85.48
74659;BME280;63186;51.204;6.536;2023-03-21T01:52:19;101201.72;;;8.79;85.44
74659;BME280;63186;51.204;6.536;2023-03-21T01:54:45;101199.78;;;8.80;85.69
74659;BME280;63186;51.204;6.536;2023-03-21T01:57:16;101195.16;;;8.80;86.14
74659;BME280;63186;51.204;6.536;2023-03-21T01:59:45;101198.13;;;8.84;85.74
74659;BME280;63186;51.204;6.536;2023-03-21T02:02:19;101200.56;;;8.85;85.85
74659;BME280;63186;51.204;6.536;2023-03-21T02:04:47;101202.19;;;8.86;85.84
74659;BME280;63186;51.204;6.536;2023-03-21T02:07:17;101198.13;;;8.84;85.93
74659;BME280;63186;51.204;6.536;2023-03-21T02:09:45;101199.44;;;8.86;86.91
74659;BME280;63186;51.204;6.536;2023-03-21T02:12:11;101199.19;;;8.88;86.13
74659;BME280;63186;51.204;6.536;2023-03-21T02:14:37;101181.63;;;8.84;85.93
74659;BME280;63186;51.204;6.536;2023-03-21T02:17:14;101180.50;;;8.90;86.00
74659;BME280;63186;51.204;6.536;2023-03-21T02:19:49;101183.22;;;8.90;86.31
74659;BME280;63186;51.204;6.536;2023-03-21T02:28:24;101176.66;;;8.86;86.95
74659;BME280;63186;51.204;6.536;2023-03-21T02:31:23;101166.50;;;8.86;86.72
74659;BME280;63186;51.204;6.536;2023-03-21T02:39:58;101169.94;;;8.73;87.25
74659;BME280;63186;51.204;6.536;2023-03-21T02:42:13;101172.44;;;8.69;87.88
74659;BME280;63186;51.204;6.536;2023-03-21T02:44:49;101171.38;;;8.65;87.88
74659;BME280;63186;51.204;6.536;2023-03-21T02:47:28;101166.19;;;8.64;87.80
74659;BME280;63186;51.204;6.536;2023-03-21T02:50:15;101162.34;;;8.60;88.08
74659;BME280;63186;51.204;6.536;2023-03-21T02:52:44;101170.38;;;8.56;88.22
74659;BME280;63186;51.204;6.536;2023-03-21T02:55:14;101161.88;;;8.53;88.27
74659;BME280;63186;51.204;6.536;2023-03-21T02:57:44;101164.09;;;8.51;88.58
74659;BME280;63186;51.204;6.536;2023-03-21T03:00:15;101157.28;;;8.48;88.79
74659;BME280;63186;51.204;6.536;2023-03-21T03:02:41;101150.13;;;8.47;88.96
74659;BME280;63186;51.204;6.536;2023-03-21T03:05:34;101151.50;;;8.50;89.38
74659;BME280;63186;51.204;6.536;2023-03-21T03:11:30;101148.25;;;8.42;90.55
74659;BME280;63186;51.204;6.536;2023-03-21T03:22:40;101146.06;;;8.34;90.51
74659;BME280;63186;51.204;6.536;2023-03-21T03:25:08;101131.03;;;8.37;90.25
74659;BME280;63186;51.204;6.536;2023-03-21T03:27:40;101132.66;;;8.38;90.71
74659;BME280;63186;51.204;6.536;2023-03-21T03:30:08;101140.28;;;8.41;90.05
74659;BME280;63186;51.204;6.536;2023-03-21T03:32:47;101128.50;;;8.40;91.09
74659;BME280;63186;51.204;6.536;2023-03-21T03:35:17;101133.16;;;8.40;90.64
74659;BME280;63186;51.204;6.536;2023-03-21T03:37:50;101130.69;;;8.43;90.56
74659;BME280;63186;51.204;6.536;2023-03-21T03:40:27;101124.69;;;8.41;91.16
74659;BME280;63186;51.204;6.536;2023-03-21T03:42:58;101121.34;;;8.45;90.65
74659;BME280;63186;51.204;6.536;2023-03-21T03:45:29;101117.19;;;8.47;90.21
74659;BME280;63186;51.204;6.536;2023-03-21T03:48:21;101118.03;;;8.48;91.02
74659;BME280;63186;51.204;6.536;2023-03-21T03:51:38;101107.88;;;8.48;90.77
74659;BME280;63186;51.204;6.536;2023-03-21T03:53:46;101113.06;;;8.50;90.39
74659;BME280;63186;51.204;6.536;2023-03-21T03:56:14;101120.72;;;8.53;89.92
74659;BME280;63186;51.204;6.536;2023-03-21T03:58:40;101115.78;;;8.55;89.88
74659;BME280;63186;51.204;6.536;2023-03-21T04:01:06;101111.94;;;8.56;89.86
74659;BME280;63186;51.204;6.536;2023-03-21T04:03:33;101111.63;;;8.57;89.74
74659;BME280;63186;51.204;6.536;2023-03-21T04:06:00;101122.31;;;8.59;91.02
74659;BME280;63186;51.204;6.536;2023-03-21T04:08:25;101122.59;;;8.57;90.17
74659;BME280;63186;51.204;6.536;2023-03-21T04:10:51;101116.00;;;8.58;90.00
74659;BME280;63186;51.204;6.536;2023-03-21T04:13:16;101120.16;;;8.56;90.34
74659;BME280;63186;51.204;6.536;2023-03-21T04:15:43;101121.00;;;8.51;90.93
74659;BME280;63186;51.204;6.536;2023-03-21T04:18:09;101120.78;;;8.48;91.19
74659;BME280;63186;51.204;6.536;2023-03-21T04:20:34;101116.16;;;8.43;92.06
74659;BME280;63186;51.204;6.536;2023-03-21T04:22:59;101115.91;;;8.39;92.61
74659;BME280;63186;51.204;6.536;2023-03-21T04:25:25;101117.00;;;8.33;93.08
74659;BME280;63186;51.204;6.536;2023-03-21T04:27:52;101107.19;;;8.27;94.11
74659;BME280;63186;51.204;6.536;2023-03-21T04:30:19;101108.31;;;8.21;94.73
74659;BME280;63186;51.204;6.536;2023-03-21T04:32:45;101099.09;;;8.12;95.03
74659;BME280;63186;51.204;6.536;2023-03-21T04:35:21;101093.91;;;8.10;95.47
74659;BME280;63186;51.204;6.536;2023-03-21T04:37:46;101095.03;;;8.04;95.95
74659;BME280;63186;51.204;6.536;2023-03-21T04:40:12;101093.13;;;8.05;96.76
74659;BME280;63186;51.204;6.536;2023-03-21T04:42:42;101102.94;;;8.11;96.42
74659;BME280;63186;51.204;6.536;2023-03-21T04:45:08;101097.94;;;8.18;96.51
74659;BME280;63186;51.204;6.536;2023-03-21T04:47:33;101092.16;;;8.20;95.82
74659;BME280;63186;51.204;6.536;2023-03-21T04:49:58;101097.34;;;8.21;95.52
74659;BME280;63186;51.204;6.536;2023-03-21T04:52:24;101099.84;;;8.23;95.41
74659;BME280;63186;51.204;6.536;2023-03-21T04:54:49;101101.19;;;8.25;95.25
74659;BME280;63186;51.204;6.536;2023-03-21T04:57:15;101100.38;;;8.25;95.18
74659;BME280;63186;51.204;6.536;2023-03-21T04:59:40;101087.78;;;8.19;94.97
74659;BME280;63186;51.204;6.536;2023-03-21T05:02:06;101095.16;;;8.23;95.33
74659;BME280;63186;51.204;6.536;2023-03-21T05:04:31;101092.16;;;8.20;95.82
74659;BME280;63186;51.204;6.536;2023-03-21T05:06:57;101100.72;;;8.13;96.44
74659;BME280;63186;51.204;6.536;2023-03-21T05:09:23;101087.34;;;8.06;97.39
74659;BME280;63186;51.204;6.536;2023-03-21T05:11:48;101091.47;;;8.04;97.85
74659;BME280;63186;51.204;6.536;2023-03-21T05:14:17;101088.44;;;8.05;97.59
74659;BME280;63186;51.204;6.536;2023-03-21T05:16:44;101078.63;;;7.99;97.37
74659;BME280;63186;51.204;6.536;2023-03-21T05:19:13;101086.28;;;8.02;97.45
74659;BME280;63186;51.204;6.536;2023-03-21T05:21:38;101076.69;;;8.00;97.60
74659;BME280;63186;51.204;6.536;2023-03-21T05:24:12;101079.44;;;8.00;98.71
74659;BME280;63186;51.204;6.536;2023-03-21T05:26:39;101073.16;;;7.94;98.22
74659;BME280;63186;51.204;6.536;2023-03-21T05:29:05;101077.28;;;7.97;98.72
74659;BME280;63186;51.204;6.536;2023-03-21T05:31:31;101089.06;;;7.97;98.51
74659;BME280;63186;51.204;6.536;2023-03-21T05:33:56;101087.44;;;7.96;98.25
74659;BME280;63186;51.204;6.536;2023-03-21T05:36:21;101081.94;;;7.96;98.61
74659;BME280;63186;51.204;6.536;2023-03-21T05:38:47;101083.59;;;7.97;98.42
74659;BME280;63186;51.204;6.536;2023-03-21T05:41:13;101080.84;;;7.97;98.49
74659;BME280;63186;51.204;6.536;2023-03-21T05:43:39;101073.44;;;7.98;99.03
74659;BME280;63186;51.204;6.536;2023-03-21T05:46:04;101077.81;;;7.99;98.94
74659;BME280;63186;51.204;6.536;2023-03-21T05:48:30;101078.63;;;7.99;99.00
74659;BME280;63186;51.204;6.536;2023-03-21T05:50:55;101071.50;;;7.98;99.53
74659;BME280;63186;51.204;6.536;2023-03-21T05:53:20;101077.22;;;8.02;99.19
74659;BME280;63186;51.204;6.536;2023-03-21T05:55:46;101078.06;;;8.02;99.35
74659;BME280;63186;51.204;6.536;2023-03-21T05:58:11;101079.69;;;8.03;99.08
74659;BME280;63186;51.204;6.536;2023-03-21T06:00:37;101078.59;;;8.04;99.42
74659;BME280;63186;51.204;6.536;2023-03-21T06:03:02;101077.78;;;8.04;99.27
74659;BME280;63186;51.204;6.536;2023-03-21T06:05:27;101068.72;;;8.03;99.24
74659;BME280;63186;51.204;6.536;2023-03-21T06:07:52;101081.81;;;8.11;98.90
74659;BME280;63186;51.204;6.536;2023-03-21T06:10:18;101076.59;;;8.15;98.95
74659;BME280;63186;51.204;6.536;2023-03-21T06:12:43;101075.72;;;8.20;98.68
74659;BME280;63186;51.204;6.536;2023-03-21T06:15:09;101081.97;;;8.25;98.31
74659;BME280;63186;51.204;6.536;2023-03-21T06:17:35;101090.16;;;8.30;98.48
74659;BME280;63186;51.204;6.536;2023-03-21T06:20:01;101085.50;;;8.36;97.51
74659;BME280;63186;51.204;6.536;2023-03-21T06:22:28;101087.34;;;8.40;97.54
74659;BME280;63186;51.204;6.536;2023-03-21T06:24:53;101086.28;;;8.41;97.39
74659;BME280;63186;51.204;6.536;2023-03-21T06:27:19;101079.38;;;8.44;97.16
74659;BME280;63186;51.204;6.536;2023-03-21T06:29:44;101086.44;;;8.50;97.21
74659;BME280;63186;51.204;6.536;2023-03-21T06:32:10;101077.63;;;8.53;96.93
74659;BME280;63186;51.204;6.536;2023-03-21T06:34:36;101087.19;;;8.61;96.74
74659;BME280;63186;51.204;6.536;2023-03-21T06:37:01;101087.41;;;8.64;96.36
74659;BME280;63186;51.204;6.536;2023-03-21T06:39:28;101096.41;;;8.70;96.22
74659;BME280;63186;51.204;6.536;2023-03-21T06:41:53;101093.38;;;8.72;96.01
74659;BME280;63186;51.204;6.536;2023-03-21T06:44:19;101091.16;;;8.74;95.88
74659;BME280;63186;51.204;6.536;2023-03-21T06:46:46;101101.25;;;8.78;95.97
74659;BME280;63186;51.204;6.536;2023-03-21T06:49:11;101093.28;;;8.82;95.74
74659;BME280;63186;51.204;6.536;2023-03-21T06:51:36;101076.50;;;8.83;95.59
74659;BME280;63186;51.204;6.536;2023-03-21T06:54:01;101098.47;;;8.83;95.52
74659;BME280;63186;51.204;6.536;2023-03-21T06:56:27;101092.13;;;8.88;95.29
74659;BME280;63186;51.204;6.536;2023-03-21T06:58:52;101083.22;;;8.96;94.93
74659;BME280;63186;51.204;6.536;2023-03-21T07:01:17;101086.19;;;9.00;94.92
74659;BME280;63186;51.204;6.536;2023-03-21T07:03:43;101068.53;;;9.06;94.61
74659;BME280;63186;51.204;6.536;2023-03-21T07:06:10;101064.72;;;9.07;94.32
74659;BME280;63186;51.204;6.536;2023-03-21T07:08:37;101062.78;;;9.07;94.46
74659;BME280;63186;51.204;6.536;2023-03-21T07:11:02;101070.41;;;9.10;94.21
74659;BME280;63186;51.204;6.536;2023-03-21T07:13:28;101063.81;;;9.11;94.60
74659;BME280;63186;51.204;6.536;2023-03-21T07:15:53;101070.41;;;9.10;93.95
74659;BME280;63186;51.204;6.536;2023-03-21T07:18:18;101070.94;;;9.12;93.95
74659;BME280;63186;51.204;6.536;2023-03-21T07:20:48;101070.56;;;9.19;94.18
74659;BME280;63186;51.204;6.536;2023-03-21T07:23:18;101069.41;;;9.25;93.92
74659;BME280;63186;51.204;6.536;2023-03-21T07:25:44;101069.84;;;9.32;93.38
74659;BME280;63186;51.204;6.536;2023-03-21T07:28:11;101069.50;;;9.39;93.23
74659;BME280;63186;51.204;6.536;2023-03-21T07:30:36;101073.91;;;9.40;93.19
74659;BME280;63186;51.204;6.536;2023-03-21T07:33:01;101070.84;;;9.41;92.72
74659;BME280;63186;51.204;6.536;2023-03-21T07:35:27;101068.97;;;9.37;93.11
74659;BME280;63186;51.204;6.536;2023-03-21T07:37:52;101076.41;;;9.36;93.34
74659;BME280;63186;51.204;6.536;2023-03-21T07:40:18;101079.41;;;9.40;93.69
74659;BME280;63186;51.204;6.536;2023-03-21T07:42:43;101078.03;;;9.37;93.38
74659;BME280;63186;51.204;6.536;2023-03-21T07:45:10;101084.94;;;9.35;93.90
74659;BME280;63186;51.204;6.536;2023-03-21T07:47:36;101090.44;;;9.35;94.44
74659;BME280;63186;51.204;6.536;2023-03-21T07:50:02;101086.66;;;9.31;94.00
74659;BME280;63186;51.204;6.536;2023-03-21T07:52:28;101091.03;;;9.32;94.26
74659;BME280;63186;51.204;6.536;2023-03-21T07:54:53;101087.19;;;9.33;94.68
74659;BME280;63186;51.204;6.536;2023-03-21T07:57:19;101096.00;;;9.30;94.86
74659;BME280;63186;51.204;6.536;2023-03-21T07:59:44;101093.56;;;9.28;95.40
74659;BME280;63186;51.204;6.536;2023-03-21T08:02:14;101090.88;;;9.23;95.74
74659;BME280;63186;51.204;6.536;2023-03-21T08:04:40;101094.69;;;9.27;95.43
74659;BME280;63186;51.204;6.536;2023-03-21T08:07:05;101097.69;;;9.25;96.38
74659;BME280;63186;51.204;6.536;2023-03-21T08:09:31;101094.72;;;9.22;96.63
74659;BME280;63186;51.204;6.536;2023-03-21T08:11:56;101091.16;;;9.21;97.01
74659;BME280;63186;51.204;6.536;2023-03-21T08:14:21;101092.19;;;9.25;96.67
74659;BME280;63186;51.204;6.536;2023-03-21T08:16:47;101093.56;;;9.28;96.91
74659;BME280;63186;51.204;6.536;2023-03-21T08:19:12;101088.56;;;9.30;97.49
74659;BME280;63186;51.204;6.536;2023-03-21T08:21:37;101088.63;;;9.25;97.43
74659;BME280;63186;51.204;6.536;2023-03-21T08:24:03;101097.94;;;9.29;99.00
74659;BME280;63186;51.204;6.536;2023-03-21T08:26:29;101094.44;;;9.23;98.56
74659;BME280;63186;51.204;6.536;2023-03-21T08:28:56;101091.69;;;9.23;98.65
74659;BME280;63186;51.204;6.536;2023-03-21T08:31:21;101093.56;;;9.28;99.06
74659;BME280;63186;51.204;6.536;2023-03-21T08:33:47;101083.38;;;9.29;99.16
74659;BME280;63186;51.204;6.536;2023-03-21T08:36:17;101091.03;;;9.32;99.17
74659;BME280;63186;51.204;6.536;2023-03-21T08:38:42;101083.31;;;9.34;99.55
74659;BME280;63186;51.204;6.536;2023-03-21T08:41:10;101092.69;;;9.33;100.00
74659;BME280;63186;51.204;6.536;2023-03-21T08:43:35;101096.75;;;9.35;100.00
74659;BME280;63186;51.204;6.536;2023-03-21T08:46:01;101102.13;;;9.45;100.00
74659;BME280;63186;51.204;6.536;2023-03-21T08:48:28;101091.06;;;9.50;99.49
74659;BME280;63186;51.204;6.536;2023-03-21T08:50:53;101089.06;;;9.56;100.00
74659;BME280;63186;51.204;6.536;2023-03-21T08:53:18;101093.44;;;9.57;99.89
74659;BME280;63186;51.204;6.536;2023-03-21T08:55:44;101096.94;;;9.63;99.87
74659;BME280;63186;51.204;6.536;2023-03-21T08:58:09;101091.38;;;9.68;99.35
74659;BME280;63186;51.204;6.536;2023-03-21T09:00:35;101089.88;;;9.75;98.97
74659;BME280;63186;51.204;6.536;2023-03-21T09:03:00;101094.44;;;9.85;98.80
74659;BME280;63186;51.204;6.536;2023-03-21T09:05:26;101091.38;;;9.87;99.52
74659;BME280;63186;51.204;6.536;2023-03-21T09:07:52;101096.06;;;9.86;100.00
74659;BME280;63186;51.204;6.536;2023-03-21T09:10:20;101094.44;;;9.85;100.00
74659;BME280;63186;51.204;6.536;2023-03-21T09:12:46;101095.06;;;9.77;100.00
74659;BME280;63186;51.204;6.536;2023-03-21T09:15:12;101098.19;;;9.70;100.00
74659;BME280;63186;51.204;6.536;2023-03-21T09:17:39;101090.84;;;9.66;100.00
74659;BME280;63186;51.204;6.536;2023-03-21T09:20:10;101091.75;;;9.61;100.00
74659;BME280;63186;51.204;6.536;2023-03-21T09:22:42;101088.25;;;9.74;100.00
74659;BME280;63186;51.204;6.536;2023-03-21T09:25:08;101088.19;;;9.79;100.00
74659;BME280;63186;51.204;6.536;2023-03-21T09:27:35;101083.19;;;9.82;100.00
74659;BME280;63186;51.204;6.536;2023-03-21T09:30:02;101091.88;;;9.89;100.00
74659;BME280;63186;51.204;6.536;2023-03-21T09:32:30;101081.25;;;10.01;100.00
74659;BME280;63186;51.204;6.536;2023-03-21T09:34:55;101085.25;;;10.09;99.35
74659;BME280;63186;51.204;6.536;2023-03-21T09:37:21;101085.78;;;10.11;98.34
74659;BME280;63186;51.204;6.536;2023-03-21T09:39:47;101085.25;;;10.09;97.81
74659;BME280;63186;51.204;6.536;2023-03-21T09:42:31;101079.38;;;10.15;97.80
74659;BME280;63186;51.204;6.536;2023-03-21T09:47:41;101072.75;;;10.16;97.36
74659;BME280;63186;51.204;6.536;2023-03-21T09:50:17;101068.28;;;10.20;97.19
74659;BME280;63186;51.204;6.536;2023-03-21T09:53:03;101079.59;;;10.19;97.64
74659;BME280;63186;51.204;6.536;2023-03-21T09:55:32;101079.53;;;10.24;97.02
74659;BME280;63186;51.204;6.536;2023-03-21T10:00:39;101070.53;;;10.18;97.24
74659;BME280;63186;51.204;6.536;2023-03-21T10:03:28;101059.09;;;10.11;97.96
74659;BME280;63186;51.204;6.536;2023-03-21T10:05:56;101058.63;;;10.04;98.71
74659;BME280;63186;51.204;6.536;2023-03-21T10:08:29;101064.97;;;10.04;97.81
74659;BME280;63186;51.204;6.536;2023-03-21T10:11:05;101043.34;;;9.98;98.73
74659;BME280;63186;51.204;6.536;2023-03-21T10:13:35;101050.25;;;9.95;97.71
74659;BME280;63186;51.204;6.536;2023-03-21T10:16:30;101043.94;;;9.95;100.00
74659;BME280;63186;51.204;6.536;2023-03-21T10:18:58;101035.69;;;9.95;99.57
74659;BME280;63186;51.204;6.536;2023-03-21T10:21:26;101027.28;;;10.05;98.14
74659;BME280;63186;51.204;6.536;2023-03-21T10:23:53;101018.53;;;10.17;97.18
74659;BME280;63186;51.204;6.536;2023-03-21T10:26:21;101014.44;;;10.33;97.24
74659;BME280;63186;51.204;6.536;2023-03-21T10:28:48;101012.59;;;10.42;95.88
74659;BME280;63186;51.204;6.536;2023-03-21T10:31:17;101013.75;;;10.55;94.45
74659;BME280;63186;51.204;6.536;2023-03-21T10:33:46;101005.22;;;10.70;93.86
74659;BME280;63186;51.204;6.536;2023-03-21T10:36:16;101001.50;;;10.75;93.46
74659;BME280;63186;51.204;6.536;2023-03-21T10:38:50;101000.28;;;10.81;94.45
74659;BME280;63186;51.204;6.536;2023-03-21T10:41:17;100993.47;;;10.92;94.54
74659;BME280;63186;51.204;6.536;2023-03-21T10:43:44;100990.50;;;11.02;93.24
74659;BME280;63186;51.204;6.536;2023-03-21T10:46:17;100986.63;;;11.03;93.32
74659;BME280;63186;51.204;6.536;2023-03-21T10:48:50;100981.28;;;11.07;92.02
74659;BME280;63186;51.204;6.536;2023-03-21T10:51:41;100978.94;;;11.00;92.12
74659;BME280;63186;51.204;6.536;2023-03-21T10:54:13;100983.94;;;11.12;93.10
74659;BME280;63186;51.204;6.536;2023-03-21T10:56:44;100979.41;;;11.30;91.08
74659;BME280;63186;51.204;6.536;2023-03-21T10:59:17;100975.50;;;11.45;89.39
74659;BME280;63186;51.204;6.536;2023-03-21T11:01:48;100967.03;;;11.41;88.98
74659;BME280;63186;51.204;6.536;2023-03-21T11:04:18;100960.34;;;11.56;87.98
74659;BME280;63186;51.204;6.536;2023-03-21T11:06:50;100968.34;;;11.66;87.15
74659;BME280;63186;51.204;6.536;2023-03-21T11:09:21;100966.50;;;11.75;86.15
74659;BME280;63186;51.204;6.536;2023-03-21T11:12:13;100968.22;;;11.71;88.36
74659;BME280;63186;51.204;6.536;2023-03-21T11:14:44;100970.13;;;11.62;86.97
74659;BME280;63186;51.204;6.536;2023-03-21T11:19:58;100964.81;;;11.29;87.85
74659;BME280;63186;51.204;6.536;2023-03-21T11:22:28;100965.00;;;11.33;88.52
74659;BME280;63186;51.204;6.536;2023-03-21T11:24:59;100958.88;;;11.36;88.56
74659;BME280;63186;51.204;6.536;2023-03-21T11:27:26;100960.94;;;11.30;88.76
74659;BME280;63186;51.204;6.536;2023-03-21T11:29:54;100948.56;;;11.28;88.26
74659;BME280;63186;51.204;6.536;2023-03-21T11:32:23;100948.28;;;11.29;88.03
74659;BME280;63186;51.204;6.536;2023-03-21T11:34:59;100956.59;;;11.16;88.69
74659;BME280;63186;51.204;6.536;2023-03-21T11:37:44;100952.19;;;11.14;89.97
74659;BME280;63186;51.204;6.536;2023-03-21T11:40:26;100951.47;;;11.23;90.18
74659;BME280;63186;51.204;6.536;2023-03-21T11:45:27;100936.69;;;11.19;90.61
74659;BME280;63186;51.204;6.536;2023-03-21T11:47:54;100938.19;;;11.25;89.31
74659;BME280;63186;51.204;6.536;2023-03-21T11:50:39;100945.31;;;11.26;89.94
74659;BME280;63186;51.204;6.536;2023-03-21T11:53:34;100942.13;;;11.32;89.73
74659;BME280;63186;51.204;6.536;2023-03-21T12:04:46;100968.50;;;11.25;90.57
74659;BME280;63186;51.204;6.536;2023-03-21T12:07:44;100956.03;;;11.27;90.29
74659;BME280;63186;51.204;6.536;2023-03-21T12:10:30;100948.91;;;11.26;89.95
74659;BME280;63186;51.204;6.536;2023-03-21T12:15:42;100952.63;;;11.44;87.52
74659;BME280;63186;51.204;6.536;2023-03-21T12:21:05;100939.31;;;11.82;87.48
74659;BME280;63186;51.204;6.536;2023-03-21T12:27:09;100939.63;;;12.12;85.57
74659;BME280;63186;51.204;6.536;2023-03-21T12:30:02;100936.75;;;12.26;83.68
74659;BME280;63186;51.204;6.536;2023-03-21T12:32:51;100924.84;;;12.39;83.13
74659;BME280;63186;51.204;6.536;2023-03-21T12:38:35;100926.81;;;12.47;82.94
74659;BME280;63186;51.204;6.536;2023-03-21T12:41:19;100916.25;;;12.49;81.25
74659;BME280;63186;51.204;6.536;2023-03-21T12:46:23;100916.91;;;12.55;81.86
74659;BME280;63186;51.204;6.536;2023-03-21T12:51:47;100907.41;;;12.30;83.64
74659;BME280;63186;51.204;6.536;2023-03-21T12:54:36;100891.97;;;12.29;81.22
74659;BME280;63186;51.204;6.536;2023-03-21T12:57:08;100888.88;;;12.21;81.72
74659;BME280;63186;51.204;6.536;2023-03-21T12:59:39;100878.16;;;12.20;83.41
74659;BME280;63186;51.204;6.536;2023-03-21T13:02:22;100877.38;;;12.28;80.85
74659;BME280;63186;51.204;6.536;2023-03-21T13:04:56;100878.53;;;12.36;81.04
74659;BME280;63186;51.204;6.536;2023-03-21T13:07:24;100880.19;;;12.45;81.18
74659;BME280;63186;51.204;6.536;2023-03-21T13:09:50;100878.06;;;12.42;81.22
74659;BME280;63186;51.204;6.536;2023-03-21T13:12:25;100862.97;;;12.48;79.83
74659;BME280;63186;51.204;6.536;2023-03-21T13:18:00;100865.78;;;12.74;79.83
74659;BME280;63186;51.204;6.536;2023-03-21T13:20:37;100858.50;;;12.79;78.64
74659;BME280;63186;51.204;6.536;2023-03-21T13:23:07;100845.81;;;12.86;79.02
74659;BME280;63186;51.204;6.536;2023-03-21T13:25:40;100846.28;;;12.80;77.80
74659;BME280;63186;51.204;6.536;2023-03-21T13:28:17;100840.25;;;12.77;78.70
74659;BME280;63186;51.204;6.536;2023-03-21T13:30:42;100834.41;;;12.70;78.94
74659;BME280;63186;51.204;6.536;2023-03-21T13:33:13;100839.44;;;12.68;79.97
74659;BME280;63186;51.204;6.536;2023-03-21T13:35:40;100839.47;;;12.86;79.63
74659;BME280;63186;51.204;6.536;2023-03-21T13:38:15;100822.41;;;13.01;77.65
74659;BME280;63186;51.204;6.536;2023-03-21T13:41:12;100817.34;;;13.03;78.19
74659;BME280;63186;51.204;6.536;2023-03-21T13:44:30;100821.91;;;13.08;77.02
74659;BME280;63186;51.204;6.536;2023-03-21T13:46:44;100817.38;;;13.20;78.55
74659;BME280;63186;51.204;6.536;2023-03-21T13:54:23;100821.25;;;13.19;76.72
74659;BME280;63186;51.204;6.536;2023-03-21T13:56:54;100834.78;;;13.21;76.66
74659;BME280;63186;51.204;6.536;2023-03-21T13:59:43;100824.84;;;13.20;75.42
74659;BME280;63186;51.204;6.536;2023-03-21T14:04:38;100832.66;;;13.44;76.38
74659;BME280;63186;51.204;6.536;2023-03-21T14:07:07;100826.59;;;13.42;75.08
74659;BME280;63186;51.204;6.536;2023-03-21T14:09:38;100822.38;;;13.36;76.61
74659;BME280;63186;51.204;6.536;2023-03-21T14:12:08;100807.63;;;13.32;75.20
74659;BME280;63186;51.204;6.536;2023-03-21T14:14:51;100813.63;;;13.34;74.60
74659;BME280;63186;51.204;6.536;2023-03-21T14:17:29;100814.25;;;13.39;73.58
74659;BME280;63186;51.204;6.536;2023-03-21T14:20:04;100805.81;;;13.44;75.11
74659;BME280;63186;51.204;6.536;2023-03-21T14:22:35;100803.53;;;13.38;74.72